Stacja Pogody
Warszawa Praga-Północ

Szerokość 52°15'43"N Długość 21°01'22"E Wysokość 110m n.p.m.


113 dzień roku.   Do końca pozostalo 252 dni.   Od wczoraj przybyło 3 min. i 49 sek. dnia.
Wschód Słońca 05:21 Górowanie Słońca 12:34 Zachód Słońca 19:46 byk
Data juliańska 2457867.398 Odległość Słońca 150432667 km Średn. kątowa Słońca 0,318°
Wschód Księżyca 04:19 Zachód Księżyca 15:46 Wiek Księżyca 27 dni Moon
Widoczność Księżyca 9,17% Odległość Księżyca 376025 km Średn. kątowa Księżyca 0,318°
Dzień krótszy od najdłuższego o: 02:22 Długość dnia 14:25 Imieniny Jerzego, Wojciecha



  Aktualizacja: 23-04-2017 21:32:58
TEMPERATURA
Aktualnie: 3.9°C ↓↓
Temperatura odczuwalna:0.7°C
Punkt rosy0.9°C
WIATR
Średnia prędkość: 7.2km/h ↑
Prędkość w podmuchach:12.2km/h
Przepływ w ciągu doby:270.1km
Kierunek wiatru:180°
CIŚNIENIE
Względne:1016.3hPa
Bezwzględne:1003.1hPa
Trend ciśnienia:powolny wzrost
WILGOTNOŚĆ
Wilgotność względna: 81% ↑
Podstawa chmur1558m
DESZCZ
W ostatniej godzinie: 0.0mm
Dzisiaj:0.0mm
W tym miesiącu:55.8mm
METAR
EPWA 231900Z 26007KT CAVOK 02/00 Q1015 NOSIG
Ostrzeżenia burzowe
Prognoza 12-to godzinna (prawdopodobieństwo 75%):   Dobra pogoda prognoza





a  a a